South Pownal, Vermont
Current Conditions -  °F | °C
As of 1:52 AM on Saturday 29 Nov 2014 (Local Time) from KAQW Reporting Station
Clear Clear  
Wind Chill:   Ceiling: Unl
Heat Index: 17°   Visibility: 10mi
Dew Point: 12°   Wind: 6mph
Humidity: 81%   Direction: 260°W
Pressure: 30.22"   Gusts: NA
Location:  42.7845°N, 73.2029°W
Report Text: KAQW 290652Z AUTO 26005KT 10SM CLR M08/M11 A3022 RMK AO2 SLP246 T10831111
Loading
Personal Weather Stations






























Interactive Weather Map New forecast layout! Learn more

10-Day Weather Forecast

Advertisements
Track Severe Weather on mobile